createdAt,value
2022-08-18T00:01:16.829Z,3.10
2022-08-18T00:06:21.842Z,3.60
2022-08-18T00:11:25.100Z,3.67
2022-08-18T00:16:29.309Z,4.30
2022-08-18T00:21:32.258Z,4.40
2022-08-18T00:26:37.073Z,4.68
2022-08-18T00:31:41.654Z,5.13
2022-08-18T00:36:44.516Z,5.70
2022-08-18T00:41:47.423Z,5.45
2022-08-18T00:46:51.810Z,5.80
2022-08-18T00:51:55.493Z,5.85
2022-08-18T00:57:01.361Z,6.60
2022-08-18T01:02:10.384Z,6.93
2022-08-18T01:07:20.510Z,7.45
2022-08-18T01:12:45.837Z,8.63
2022-08-18T01:18:05.802Z,8.43
2022-08-18T01:23:14.188Z,8.68
2022-08-18T01:28:19.431Z,9.27
2022-08-18T01:33:22.294Z,9.95
2022-08-18T01:38:34.454Z,9.70
2022-08-18T01:43:38.109Z,9.65
2022-08-18T01:48:43.159Z,9.65
2022-08-18T01:53:48.651Z,10.20
2022-08-18T01:58:51.453Z,9.95
2022-08-18T02:04:23.465Z,10.65
2022-08-18T02:09:25.310Z,10.73
2022-08-18T02:14:28.235Z,10.20
2022-08-18T02:19:35.996Z,10.98
2022-08-18T02:24:40.915Z,10.93
2022-08-18T02:29:43.822Z,10.93
2022-08-18T02:34:46.676Z,12.15
2022-08-18T02:39:51.143Z,14.15
2022-08-18T02:44:54.365Z,14.88
2022-08-18T02:49:57.288Z,13.88
2022-08-18T02:55:02.274Z,12.80
2022-08-18T03:00:05.959Z,12.35
2022-08-18T03:05:10.844Z,12.38
2022-08-18T03:10:33.307Z,11.18
2022-08-18T03:15:36.821Z,11.40
2022-08-18T03:20:40.218Z,11.18
2022-08-18T03:25:47.613Z,11.05
2022-08-18T03:30:50.566Z,11.13
2022-08-18T03:35:53.504Z,11.13
2022-08-18T03:40:57.700Z,10.82
2022-08-18T03:46:02.383Z,10.65
2022-08-18T03:51:06.763Z,9.23
2022-08-18T03:56:16.081Z,10.27
2022-08-18T04:01:26.517Z,10.63
2022-08-18T04:06:33.382Z,11.00
2022-08-18T04:11:43.105Z,11.63
2022-08-18T04:16:49.003Z,12.00
2022-08-18T04:21:54.254Z,13.77
2022-08-18T04:26:59.672Z,13.20
2022-08-18T04:32:04.915Z,12.85
2022-08-18T04:37:09.616Z,14.15
2022-08-18T04:42:14.053Z,11.73
2022-08-18T04:47:17.303Z,11.70
2022-08-18T04:52:41.554Z,14.32
2022-08-18T04:57:46.289Z,12.55
2022-08-18T05:02:49.517Z,13.05
2022-08-18T05:07:52.604Z,12.88
2022-08-18T05:12:57.519Z,13.63
2022-08-18T05:18:00.374Z,13.45
2022-08-18T05:23:03.940Z,10.93
2022-08-18T05:28:09.864Z,10.75
2022-08-18T05:33:12.697Z,11.27
2022-08-18T05:38:26.881Z,10.48
2022-08-18T05:43:31.619Z,10.05
2022-08-18T05:48:39.832Z,10.55
2022-08-18T05:54:04.320Z,10.80
2022-08-18T05:59:09.574Z,10.70
2022-08-18T06:04:21.273Z,11.65
2022-08-18T06:09:29.695Z,12.18
2022-08-18T06:14:33.928Z,11.45
2022-08-18T06:19:49.864Z,12.73
2022-08-18T06:25:01.974Z,13.95
2022-08-18T06:30:12.644Z,13.98
2022-08-18T06:35:24.661Z,16.73
2022-08-18T06:40:28.030Z,18.45
2022-08-18T06:45:39.890Z,20.95
2022-08-18T06:50:51.350Z,22.75
2022-08-18T06:55:54.194Z,22.17
2022-08-18T07:01:02.446Z,26.15
2022-08-18T07:06:07.882Z,28.23
2022-08-18T07:11:14.794Z,28.00
2022-08-18T07:16:46.940Z,26.70
2022-08-18T07:21:48.435Z,26.02
2022-08-18T07:27:02.534Z,24.40
2022-08-18T07:32:20.924Z,24.50
2022-08-18T07:37:30.506Z,21.70
2022-08-18T07:42:54.252Z,22.30
2022-08-18T07:48:15.749Z,24.45
2022-08-18T07:53:38.309Z,26.30
2022-08-18T07:58:48.991Z,27.30
2022-08-18T08:04:01.750Z,29.30
2022-08-18T08:09:13.772Z,27.55
2022-08-18T08:14:31.352Z,29.80
2022-08-18T08:20:00.607Z,28.67
2022-08-18T08:25:28.304Z,24.90
2022-08-18T08:30:37.056Z,26.42
2022-08-18T08:35:52.855Z,23.75
2022-08-18T08:41:03.201Z,23.20
2022-08-18T08:46:11.515Z,20.67
2022-08-18T08:51:30.566Z,21.23
2022-08-18T08:56:40.142Z,20.85
2022-08-18T09:01:52.842Z,21.17
2022-08-18T09:07:10.582Z,20.55
2022-08-18T09:12:26.014Z,20.15
2022-08-18T09:17:54.268Z,19.60
2022-08-18T09:23:06.932Z,21.55
2022-08-18T09:28:13.052Z,21.45
2022-08-18T09:33:49.744Z,20.27
2022-08-18T09:39:20.550Z,21.15
2022-08-18T09:45:02.027Z,18.50
2022-08-18T09:50:38.584Z,18.60
2022-08-18T09:56:01.345Z,18.30
2022-08-18T10:01:39.901Z,18.63
2022-08-18T10:12:16.321Z,20.25
2022-08-18T10:17:36.783Z,19.75
2022-08-18T10:22:44.244Z,19.65
2022-08-18T10:32:58.014Z,18.10
2022-08-18T10:38:03.838Z,19.38
2022-08-18T10:43:45.198Z,20.30
2022-08-18T10:48:35.762Z,18.65
2022-08-18T10:53:49.746Z,18.85
2022-08-18T10:59:16.211Z,20.75
2022-08-18T11:04:33.512Z,18.33
2022-08-18T11:09:41.725Z,16.70
2022-08-18T11:15:22.841Z,16.58
2022-08-18T11:25:38.489Z,16.33
2022-08-18T11:30:46.635Z,15.23
2022-08-18T11:35:52.792Z,16.25
2022-08-18T11:46:40.835Z,14.60
2022-08-18T11:52:02.228Z,13.23
2022-08-18T11:57:32.366Z,12.20
2022-08-18T12:02:38.597Z,10.90
2022-08-18T12:07:49.623Z,11.63
2022-08-18T12:13:01.214Z,11.63
2022-08-18T12:18:06.342Z,11.50
2022-08-18T12:23:09.173Z,11.52
2022-08-18T12:28:12.022Z,12.10
2022-08-18T12:33:16.879Z,10.13
2022-08-18T12:38:28.249Z,10.55
2022-08-18T12:43:32.521Z,11.43
2022-08-18T12:48:39.498Z,12.45
2022-08-18T12:53:57.993Z,12.57
2022-08-18T12:59:06.729Z,11.82
2022-08-18T13:04:13.872Z,11.70
2022-08-18T13:09:35.238Z,11.02
2022-08-18T13:14:40.130Z,10.68
2022-08-18T13:19:48.206Z,10.15
2022-08-18T13:24:52.707Z,9.75
2022-08-18T13:29:56.170Z,8.63
2022-08-18T13:35:00.358Z,9.27
2022-08-18T13:40:07.215Z,9.20
2022-08-18T13:45:24.555Z,8.95
2022-08-18T13:50:30.135Z,9.68
2022-08-18T13:55:33.063Z,9.93
2022-08-18T14:00:36.324Z,8.95
2022-08-18T14:05:51.504Z,8.50
2022-08-18T14:10:59.197Z,8.77
2022-08-18T14:16:02.105Z,8.77
2022-08-18T14:21:24.801Z,9.25
2022-08-18T14:26:45.295Z,11.20
2022-08-18T14:31:48.903Z,10.30
2022-08-18T14:36:56.629Z,10.15
2022-08-18T14:41:59.777Z,12.10
2022-08-18T14:47:06.560Z,9.80
2022-08-18T14:52:13.957Z,9.77
2022-08-18T14:57:18.203Z,12.43
2022-08-18T15:02:28.835Z,12.70
2022-08-18T15:07:33.627Z,14.52
2022-08-18T15:12:37.491Z,11.25
2022-08-18T15:17:42.027Z,11.38
2022-08-18T15:23:05.112Z,10.65
2022-08-18T15:28:08.356Z,10.85
2022-08-18T15:33:25.300Z,11.32
2022-08-18T15:38:35.569Z,11.43
2022-08-18T15:43:45.941Z,11.60
2022-08-18T15:48:49.666Z,11.25
2022-08-18T15:53:56.389Z,10.70
2022-08-18T15:59:04.302Z,9.90
2022-08-18T16:09:18.408Z,7.95
2022-08-18T16:14:21.243Z,7.85
2022-08-18T16:19:25.795Z,8.18
2022-08-18T16:24:34.695Z,7.95
2022-08-18T16:29:37.999Z,7.82
2022-08-18T16:34:41.417Z,7.63
2022-08-18T16:39:45.702Z,7.90
2022-08-18T16:44:48.740Z,7.22
2022-08-18T16:49:52.388Z,7.28
2022-08-18T16:55:03.448Z,7.90
2022-08-18T17:00:25.314Z,8.07
2022-08-18T17:05:28.243Z,7.88
2022-08-18T17:10:37.889Z,9.35
2022-08-18T17:15:40.820Z,9.93
2022-08-18T17:20:43.844Z,9.85
2022-08-18T17:25:48.862Z,9.07
2022-08-18T17:30:53.674Z,9.50
2022-08-18T17:36:00.622Z,8.90
2022-08-18T17:41:06.173Z,9.13
2022-08-18T17:46:13.738Z,9.10
2022-08-18T17:51:37.324Z,8.90
2022-08-18T17:56:52.542Z,9.40
2022-08-18T18:02:16.582Z,9.70
2022-08-18T18:07:34.838Z,8.35
2022-08-18T18:12:40.136Z,8.80
2022-08-18T18:17:54.633Z,8.73
2022-08-18T18:23:17.754Z,8.50
2022-08-18T18:28:31.978Z,7.55
2022-08-18T18:33:36.301Z,8.88
2022-08-18T18:38:46.068Z,8.75
2022-08-18T18:43:52.646Z,7.97
2022-08-18T18:49:07.511Z,7.78
2022-08-18T18:54:23.299Z,8.27
2022-08-18T18:59:48.897Z,7.88
2022-08-18T19:04:57.767Z,7.82
2022-08-18T19:10:07.240Z,7.18
2022-08-18T19:15:15.135Z,7.15
2022-08-18T19:25:27.722Z,6.68
2022-08-18T19:30:35.430Z,6.30
2022-08-18T19:35:42.979Z,6.53
2022-08-18T19:40:51.212Z,6.32
2022-08-18T19:46:02.860Z,7.30
2022-08-18T19:51:19.855Z,6.82
2022-08-18T19:56:43.587Z,6.97
2022-08-18T20:01:59.145Z,6.82
2022-08-18T20:07:20.508Z,7.25
2022-08-18T20:12:45.196Z,6.18
2022-08-18T20:18:21.551Z,6.57
2022-08-18T20:23:34.172Z,6.68
2022-08-18T20:28:40.489Z,9.63
2022-08-18T20:34:03.939Z,6.60
2022-08-18T20:39:32.339Z,6.47
2022-08-18T20:50:16.045Z,6.35
2022-08-18T20:55:27.367Z,6.97
2022-08-18T21:00:35.851Z,9.95
2022-08-18T21:05:41.912Z,6.15
2022-08-18T21:10:50.834Z,6.15
2022-08-18T21:15:54.654Z,6.50
2022-08-18T21:21:00.718Z,6.20
2022-08-18T21:26:11.248Z,5.85
2022-08-18T21:31:41.705Z,5.70
2022-08-18T21:36:54.690Z,5.80
2022-08-18T21:41:59.453Z,5.75
2022-08-18T21:47:09.401Z,14.40
2022-08-18T21:52:24.047Z,5.85
2022-08-18T21:57:28.794Z,6.22
2022-08-18T22:02:32.236Z,5.80
2022-08-18T22:07:36.585Z,6.40
2022-08-18T22:13:01.865Z,5.93
2022-08-18T22:18:07.199Z,5.70
2022-08-18T22:23:45.768Z,6.18
2022-08-18T22:28:56.144Z,6.28
2022-08-18T22:34:04.612Z,6.40
2022-08-18T22:39:12.443Z,6.80
2022-08-18T22:44:15.270Z,6.05
2022-08-18T22:49:18.601Z,6.70
2022-08-18T22:54:25.360Z,6.60
2022-08-18T22:59:28.292Z,6.82
2022-08-18T23:04:31.386Z,6.43
2022-08-18T23:09:36.332Z,6.35
2022-08-18T23:14:39.316Z,6.95
2022-08-18T23:19:42.703Z,6.30
2022-08-18T23:24:48.605Z,6.80
2022-08-18T23:29:52.383Z,6.75
2022-08-18T23:34:55.748Z,7.45
2022-08-18T23:40:00.074Z,6.35
2022-08-18T23:45:04.700Z,6.78
2022-08-18T23:50:08.467Z,6.68
2022-08-18T23:55:15.595Z,7.90
